createdAt,value
2022-12-04T00:01:16.867Z,39.67
2022-12-04T00:03:44.701Z,37.90
2022-12-04T00:06:14.598Z,33.07
2022-12-04T00:08:43.215Z,23.30
2022-12-04T00:11:14.222Z,19.30
2022-12-04T00:13:42.796Z,23.57
2022-12-04T00:16:13.454Z,20.63
2022-12-04T00:18:41.378Z,15.07
2022-12-04T00:21:11.356Z,18.10
2022-12-04T00:23:40.141Z,16.23
2022-12-04T00:26:10.201Z,14.03
2022-12-04T00:28:40.216Z,13.80
2022-12-04T00:31:10.055Z,13.33
2022-12-04T00:33:38.297Z,12.10
2022-12-04T00:36:08.372Z,13.10
2022-12-04T00:38:36.534Z,15.67
2022-12-04T00:41:04.954Z,12.57
2022-12-04T00:43:33.143Z,12.23
2022-12-04T00:46:02.337Z,12.60
2022-12-04T00:48:30.420Z,12.30
2022-12-04T00:51:03.167Z,14.27
2022-12-04T00:53:30.992Z,14.20
2022-12-04T00:55:58.892Z,16.17
2022-12-04T00:58:26.683Z,17.57
2022-12-04T01:01:05.131Z,15.47
2022-12-04T01:03:33.185Z,17.43
2022-12-04T01:06:01.370Z,16.47
2022-12-04T01:08:29.429Z,18.90
2022-12-04T01:10:57.381Z,18.33
2022-12-04T01:13:26.770Z,17.33
2022-12-04T01:15:54.602Z,18.47
2022-12-04T01:18:23.809Z,15.50
2022-12-04T01:20:53.005Z,16.07
2022-12-04T01:23:21.214Z,16.43
2022-12-04T01:25:53.529Z,17.07
2022-12-04T01:28:21.691Z,14.17
2022-12-04T01:31:01.842Z,15.07
2022-12-04T01:33:32.066Z,18.33
2022-12-04T01:36:01.649Z,15.77
2022-12-04T01:38:29.984Z,19.47
2022-12-04T01:40:58.411Z,16.30
2022-12-04T01:43:27.232Z,16.50
2022-12-04T01:45:56.707Z,15.67
2022-12-04T01:48:30.759Z,14.03
2022-12-04T01:51:05.869Z,14.67
2022-12-04T01:53:36.223Z,14.83
2022-12-04T01:56:05.413Z,17.70
2022-12-04T01:58:37.634Z,15.17
2022-12-04T02:01:09.204Z,17.23
2022-12-04T02:03:38.691Z,13.10
2022-12-04T02:06:08.279Z,14.73
2022-12-04T02:08:37.027Z,17.47
2022-12-04T02:11:15.042Z,15.30
2022-12-04T02:13:51.465Z,15.63
2022-12-04T02:16:25.876Z,17.07
2022-12-04T02:19:00.568Z,18.00
2022-12-04T02:21:37.066Z,17.50
2022-12-04T02:24:22.926Z,15.60
2022-12-04T02:26:55.295Z,18.90
2022-12-04T02:29:38.043Z,17.23
2022-12-04T02:32:13.966Z,16.57
2022-12-04T02:34:45.695Z,16.27
2022-12-04T02:37:19.616Z,17.30
2022-12-04T02:39:53.397Z,18.00
2022-12-04T02:42:27.761Z,20.03
2022-12-04T02:45:01.328Z,16.23
2022-12-04T02:47:29.306Z,17.00
2022-12-04T02:50:01.194Z,16.27
2022-12-04T02:52:34.282Z,16.73
2022-12-04T02:55:08.804Z,14.53
2022-12-04T02:57:41.432Z,19.80
2022-12-04T03:00:12.370Z,16.87
2022-12-04T03:02:44.560Z,14.83
2022-12-04T03:05:18.194Z,15.83
2022-12-04T03:07:50.253Z,16.63
2022-12-04T03:10:24.219Z,14.90
2022-12-04T03:12:55.928Z,15.40
2022-12-04T03:15:28.924Z,16.30
2022-12-04T03:18:01.154Z,14.83
2022-12-04T03:20:33.115Z,14.47
2022-12-04T03:23:05.129Z,14.77
2022-12-04T03:25:37.023Z,12.53
2022-12-04T03:28:08.514Z,12.87
2022-12-04T03:30:44.249Z,13.33
2022-12-04T03:33:16.465Z,14.43
2022-12-04T03:35:50.605Z,12.33
2022-12-04T03:38:32.209Z,13.13
2022-12-04T03:41:04.363Z,14.53
2022-12-04T03:43:38.327Z,13.47
2022-12-04T03:46:13.653Z,14.40
2022-12-04T03:48:45.046Z,18.90
2022-12-04T03:51:18.798Z,13.27
2022-12-04T03:53:52.137Z,14.67
2022-12-04T03:56:23.493Z,23.23
2022-12-04T03:58:56.768Z,14.77
2022-12-04T04:01:33.913Z,16.43
2022-12-04T04:04:07.548Z,16.20
2022-12-04T04:06:40.222Z,15.67
2022-12-04T04:09:14.434Z,23.63
2022-12-04T04:11:48.651Z,17.27
2022-12-04T04:14:40.354Z,17.67
2022-12-04T04:17:33.542Z,18.40
2022-12-04T04:20:25.691Z,16.00
2022-12-04T04:23:12.961Z,14.97
2022-12-04T04:25:43.580Z,16.17
2022-12-04T04:28:29.863Z,13.20
2022-12-04T04:31:05.484Z,17.93
2022-12-04T04:33:37.071Z,14.73
2022-12-04T04:36:13.331Z,15.53
2022-12-04T04:38:46.887Z,16.07
2022-12-04T04:41:20.558Z,17.33
2022-12-04T04:43:55.677Z,14.30
2022-12-04T04:46:29.450Z,17.77
2022-12-04T04:49:02.207Z,20.13
2022-12-04T04:51:32.207Z,17.20
2022-12-04T04:54:04.780Z,14.07
2022-12-04T04:56:32.735Z,17.37
2022-12-04T04:59:00.452Z,18.30
2022-12-04T05:01:29.623Z,13.90
2022-12-04T05:03:58.757Z,15.10
2022-12-04T05:06:26.497Z,17.03
2022-12-04T05:08:54.205Z,17.23
2022-12-04T05:11:22.010Z,13.00
2022-12-04T05:13:49.772Z,14.60
2022-12-04T05:16:18.208Z,14.73
2022-12-04T05:19:06.635Z,20.20
2022-12-04T05:21:35.245Z,13.83
2022-12-04T05:24:03.149Z,13.60
2022-12-04T05:26:30.891Z,14.63
2022-12-04T05:28:58.645Z,13.37
2022-12-04T05:31:26.472Z,15.00
2022-12-04T05:33:54.307Z,13.60
2022-12-04T05:36:22.020Z,14.13
2022-12-04T05:38:51.634Z,15.00
2022-12-04T05:41:19.362Z,14.80
2022-12-04T05:43:47.108Z,14.13
2022-12-04T05:46:14.908Z,13.87
2022-12-04T05:48:42.674Z,13.17
2022-12-04T05:51:12.082Z,19.53
2022-12-04T05:53:40.154Z,13.03
2022-12-04T05:56:09.824Z,12.37
2022-12-04T05:58:38.959Z,14.57
2022-12-04T06:01:14.128Z,15.20
2022-12-04T06:03:41.921Z,15.93
2022-12-04T06:06:17.639Z,14.93
2022-12-04T06:08:49.695Z,13.50
2022-12-04T06:11:21.335Z,18.43
2022-12-04T06:13:49.280Z,17.17
2022-12-04T06:16:18.958Z,14.00
2022-12-04T06:18:50.543Z,14.77
2022-12-04T06:21:18.932Z,16.57
2022-12-04T06:23:47.319Z,14.83
2022-12-04T06:26:15.295Z,13.53
2022-12-04T06:28:44.439Z,15.60
2022-12-04T06:31:14.062Z,15.20
2022-12-04T06:33:42.268Z,16.17
2022-12-04T06:36:13.138Z,15.23
2022-12-04T06:38:42.537Z,15.47
2022-12-04T06:41:11.915Z,14.30
2022-12-04T06:43:39.958Z,15.20
2022-12-04T06:46:12.499Z,16.90
2022-12-04T06:48:41.013Z,14.23
2022-12-04T06:51:13.341Z,16.30
2022-12-04T06:53:41.933Z,18.27
2022-12-04T06:56:14.246Z,16.17
2022-12-04T06:58:41.984Z,15.23
2022-12-04T07:01:12.921Z,16.33
2022-12-04T07:03:44.718Z,14.77
2022-12-04T07:06:17.633Z,15.37
2022-12-04T07:08:46.931Z,14.40
2022-12-04T07:11:16.220Z,15.73
2022-12-04T07:13:44.356Z,14.73
2022-12-04T07:16:15.786Z,15.90
2022-12-04T07:18:43.934Z,13.70
2022-12-04T07:21:15.965Z,15.87
2022-12-04T07:23:44.200Z,15.17
2022-12-04T07:26:14.303Z,18.33
2022-12-04T07:28:42.767Z,15.33
2022-12-04T07:31:14.510Z,14.10
2022-12-04T07:33:43.139Z,14.67
2022-12-04T07:36:14.149Z,18.53
2022-12-04T07:38:42.496Z,15.63
2022-12-04T07:41:12.137Z,14.67
2022-12-04T07:43:40.236Z,17.07
2022-12-04T07:46:10.058Z,16.37
2022-12-04T07:48:39.240Z,16.20
2022-12-04T07:51:09.149Z,18.13
2022-12-04T07:53:37.710Z,18.73
2022-12-04T07:56:06.923Z,17.93
2022-12-04T07:58:35.101Z,17.53
2022-12-04T08:01:07.742Z,16.70
2022-12-04T08:03:36.372Z,19.60
2022-12-04T08:06:08.021Z,21.73
2022-12-04T08:08:37.025Z,18.43
2022-12-04T08:11:07.525Z,18.33
2022-12-04T08:13:35.789Z,17.40
2022-12-04T08:16:03.877Z,18.17
2022-12-04T08:18:31.867Z,19.20
2022-12-04T08:21:06.648Z,17.13
2022-12-04T08:23:34.929Z,16.13
2022-12-04T08:26:03.666Z,17.47
2022-12-04T08:28:32.588Z,15.40
2022-12-04T08:31:04.719Z,17.83
2022-12-04T08:33:33.082Z,17.07
2022-12-04T08:36:01.601Z,15.33
2022-12-04T08:38:30.801Z,14.57
2022-12-04T08:41:01.121Z,14.50
2022-12-04T08:43:29.263Z,14.27
2022-12-04T08:45:58.445Z,14.80
2022-12-04T08:48:27.403Z,14.63
2022-12-04T08:50:55.877Z,15.83
2022-12-04T08:53:24.092Z,13.93
2022-12-04T08:55:53.995Z,14.90
2022-12-04T08:58:21.927Z,15.67
2022-12-04T09:00:50.435Z,14.10
2022-12-04T09:03:21.059Z,15.07
2022-12-04T09:05:51.348Z,15.53
2022-12-04T09:08:19.163Z,13.97
2022-12-04T09:10:47.070Z,15.27
2022-12-04T09:13:16.304Z,14.97
2022-12-04T09:15:44.258Z,13.40
2022-12-04T09:18:12.209Z,14.17
2022-12-04T09:20:40.510Z,17.30
2022-12-04T09:23:08.914Z,14.77
2022-12-04T09:25:37.811Z,14.23
2022-12-04T09:28:05.880Z,15.10
2022-12-04T09:30:35.020Z,16.90
2022-12-04T09:33:03.897Z,16.40
2022-12-04T09:35:31.684Z,15.20
2022-12-04T09:37:59.476Z,14.57
2022-12-04T09:40:35.511Z,16.53
2022-12-04T09:43:12.372Z,16.00
2022-12-04T09:45:47.711Z,14.33
2022-12-04T09:48:19.295Z,15.37
2022-12-04T09:50:49.139Z,15.70
2022-12-04T09:53:23.316Z,13.93
2022-12-04T09:55:56.174Z,13.93
2022-12-04T09:58:40.312Z,14.23
2022-12-04T10:01:21.680Z,16.20
2022-12-04T10:03:50.011Z,13.73
2022-12-04T10:06:22.460Z,14.00
2022-12-04T10:08:56.956Z,14.13
2022-12-04T10:11:32.868Z,14.93
2022-12-04T10:14:18.043Z,14.63
2022-12-04T10:17:01.636Z,14.93
2022-12-04T10:19:34.524Z,12.90
2022-12-04T10:22:13.694Z,14.23
2022-12-04T10:24:45.201Z,13.50
2022-12-04T10:27:20.586Z,14.03
2022-12-04T10:29:53.783Z,14.30
2022-12-04T10:32:26.582Z,12.63
2022-12-04T10:34:58.064Z,13.37
2022-12-04T10:37:27.250Z,12.67
2022-12-04T10:39:59.250Z,13.27
2022-12-04T10:42:33.880Z,14.20
2022-12-04T10:45:01.744Z,14.17
2022-12-04T10:47:31.736Z,13.60
2022-12-04T10:50:01.736Z,14.07
2022-12-04T10:52:29.492Z,14.63
2022-12-04T10:54:59.913Z,14.60
2022-12-04T10:57:38.046Z,15.23
2022-12-04T11:00:25.163Z,13.87
2022-12-04T11:02:56.697Z,16.03
2022-12-04T11:05:28.061Z,15.13
2022-12-04T11:07:57.692Z,15.13
2022-12-04T11:10:31.937Z,16.10
2022-12-04T11:13:03.109Z,16.07
2022-12-04T11:15:31.508Z,17.30
2022-12-04T11:18:10.490Z,17.07
2022-12-04T11:20:40.757Z,17.57
2022-12-04T11:23:17.054Z,18.03
2022-12-04T11:25:48.907Z,18.63
2022-12-04T11:28:33.804Z,16.27
2022-12-04T11:31:08.138Z,18.00
2022-12-04T11:33:44.214Z,18.33
2022-12-04T11:36:25.749Z,20.93
2022-12-04T11:39:03.602Z,18.60
2022-12-04T11:41:33.285Z,20.63
2022-12-04T11:44:01.243Z,21.40
2022-12-04T11:46:31.565Z,19.80
2022-12-04T11:49:02.992Z,20.30
2022-12-04T11:51:44.385Z,20.70
2022-12-04T11:54:27.632Z,21.03
2022-12-04T11:57:06.850Z,20.13
2022-12-04T11:59:48.610Z,20.73
2022-12-04T12:02:33.973Z,21.00
2022-12-04T12:05:50.811Z,21.00
2022-12-04T12:08:32.931Z,21.07
2022-12-04T12:11:10.227Z,21.50
2022-12-04T12:13:50.628Z,19.33
2022-12-04T12:16:28.645Z,23.17
2022-12-04T12:19:27.983Z,21.10
2022-12-04T12:22:05.601Z,20.17
2022-12-04T12:24:46.864Z,19.83
2022-12-04T12:27:33.192Z,21.43
2022-12-04T12:30:05.683Z,21.40
2022-12-04T12:32:45.751Z,21.30
2022-12-04T12:35:28.415Z,19.87
2022-12-04T12:38:04.378Z,22.67
2022-12-04T12:40:37.864Z,21.97
2022-12-04T12:43:09.109Z,23.93
2022-12-04T12:45:45.146Z,21.10
2022-12-04T12:48:26.470Z,20.37
2022-12-04T12:51:22.095Z,22.40
2022-12-04T12:53:53.554Z,23.73
2022-12-04T12:56:32.211Z,22.80
2022-12-04T12:59:05.320Z,24.53
2022-12-04T13:01:46.218Z,21.00
2022-12-04T13:04:20.630Z,21.63
2022-12-04T13:06:54.059Z,20.07
2022-12-04T13:09:26.729Z,19.73
2022-12-04T13:12:01.184Z,20.40
2022-12-04T13:14:28.957Z,18.60
2022-12-04T13:17:00.670Z,17.37
2022-12-04T13:19:33.315Z,21.27
2022-12-04T13:22:09.867Z,20.20
2022-12-04T13:24:59.318Z,22.77
2022-12-04T13:27:37.066Z,22.23
2022-12-04T13:30:14.437Z,19.90
2022-12-04T13:33:19.564Z,20.27
2022-12-04T13:36:04.714Z,20.53
2022-12-04T13:38:43.803Z,21.93
2022-12-04T13:41:19.126Z,20.90
2022-12-04T13:43:49.233Z,22.40
2022-12-04T13:46:29.673Z,20.17
2022-12-04T13:49:09.535Z,21.60
2022-12-04T13:51:39.792Z,18.80
2022-12-04T13:54:26.025Z,19.67
2022-12-04T13:56:57.778Z,21.60
2022-12-04T13:59:36.483Z,21.60
2022-12-04T14:02:21.896Z,23.40
2022-12-04T14:04:56.261Z,21.80
2022-12-04T14:07:28.555Z,22.30
2022-12-04T14:09:59.396Z,23.33
2022-12-04T14:12:33.814Z,23.77
2022-12-04T14:15:04.231Z,24.90
2022-12-04T14:17:34.828Z,23.37
2022-12-04T14:20:08.018Z,23.67
2022-12-04T14:22:44.347Z,24.50
2022-12-04T14:25:35.705Z,26.00
2022-12-04T14:28:29.821Z,26.77
2022-12-04T14:31:06.310Z,29.30
2022-12-04T14:33:39.171Z,28.23
2022-12-04T14:36:11.698Z,27.97
2022-12-04T14:38:40.321Z,28.07
2022-12-04T14:41:08.655Z,31.00
2022-12-04T14:43:41.222Z,30.30
2022-12-04T14:46:16.807Z,33.33
2022-12-04T14:48:53.890Z,31.40
2022-12-04T14:51:26.017Z,32.43
2022-12-04T14:54:04.051Z,36.30
2022-12-04T14:56:45.250Z,31.83
2022-12-04T14:59:18.808Z,31.30
2022-12-04T15:01:48.324Z,28.90
2022-12-04T15:04:23.944Z,28.80
2022-12-04T15:06:58.320Z,27.43
2022-12-04T15:09:46.540Z,28.20
2022-12-04T15:12:37.008Z,29.47
2022-12-04T15:15:17.338Z,32.40
2022-12-04T15:17:45.431Z,34.30
2022-12-04T15:20:18.133Z,57.00
2022-12-04T15:22:46.714Z,55.53
2022-12-04T15:25:21.765Z,44.80
2022-12-04T15:27:52.166Z,92.90
2022-12-04T15:30:24.386Z,88.23
2022-12-04T15:32:54.451Z,41.27
2022-12-04T15:35:26.694Z,41.33
2022-12-04T15:37:55.167Z,35.73
2022-12-04T15:40:27.539Z,35.97
2022-12-04T15:42:56.201Z,34.40
2022-12-04T15:45:34.300Z,28.83
2022-12-04T15:48:02.544Z,29.07
2022-12-04T15:50:31.891Z,28.97
2022-12-04T15:53:04.198Z,35.93
2022-12-04T15:55:34.217Z,28.40
2022-12-04T15:58:04.581Z,32.70
2022-12-04T16:00:39.109Z,21.37
2022-12-04T16:03:24.228Z,30.80
2022-12-04T16:06:03.633Z,28.47
2022-12-04T16:08:33.109Z,35.77
2022-12-04T16:11:02.927Z,26.03
2022-12-04T16:13:36.190Z,31.60
2022-12-04T16:16:08.780Z,31.70
2022-12-04T16:18:36.690Z,30.57
2022-12-04T16:21:04.831Z,22.40
2022-12-04T16:23:33.536Z,25.60
2022-12-04T16:26:01.355Z,24.43
2022-12-04T16:28:29.186Z,23.53
2022-12-04T16:30:57.091Z,22.10
2022-12-04T16:33:26.301Z,21.17
2022-12-04T16:35:54.414Z,22.70
2022-12-04T16:38:25.519Z,23.10
2022-12-04T16:40:56.155Z,20.63
2022-12-04T16:43:24.341Z,23.60
2022-12-04T16:45:54.112Z,26.20
2022-12-04T16:48:22.211Z,23.30
2022-12-04T16:50:51.382Z,21.63
2022-12-04T16:53:21.548Z,19.47
2022-12-04T16:55:50.933Z,22.33
2022-12-04T16:58:19.591Z,22.10
2022-12-04T17:00:52.920Z,21.97
2022-12-04T17:03:30.182Z,20.20
2022-12-04T17:06:01.525Z,21.17
2022-12-04T17:08:29.654Z,21.40
2022-12-04T17:10:57.498Z,19.20
2022-12-04T17:13:25.350Z,18.47
2022-12-04T17:15:53.266Z,19.03
2022-12-04T17:18:21.696Z,17.77
2022-12-04T17:20:50.377Z,19.30
2022-12-04T17:23:20.626Z,20.67
2022-12-04T17:25:48.468Z,21.13
2022-12-04T17:28:16.397Z,20.53
2022-12-04T17:30:46.250Z,21.00
2022-12-04T17:33:15.332Z,18.00
2022-12-04T17:35:44.038Z,21.27
2022-12-04T17:38:11.857Z,20.37
2022-12-04T17:40:41.033Z,23.23
2022-12-04T17:43:08.916Z,22.43
2022-12-04T17:45:36.722Z,20.33
2022-12-04T17:48:04.779Z,19.33
2022-12-04T17:50:32.719Z,20.73
2022-12-04T17:53:00.516Z,18.30
2022-12-04T17:55:28.709Z,16.13
2022-12-04T17:57:57.886Z,18.60
2022-12-04T18:00:26.192Z,19.47
2022-12-04T18:02:54.410Z,18.57
2022-12-04T18:05:22.533Z,19.07
2022-12-04T18:07:50.367Z,19.57
2022-12-04T18:10:18.406Z,19.17
2022-12-04T18:12:46.216Z,19.10
2022-12-04T18:15:15.440Z,17.73
2022-12-04T18:17:43.286Z,19.17
2022-12-04T18:20:11.839Z,18.17
2022-12-04T18:22:39.656Z,20.40
2022-12-04T18:25:09.011Z,21.43
2022-12-04T18:27:41.663Z,21.37
2022-12-04T18:30:10.674Z,21.83
2022-12-04T18:32:39.970Z,21.03
2022-12-04T18:35:08.435Z,21.77
2022-12-04T18:37:36.459Z,22.03
2022-12-04T18:40:06.874Z,23.80
2022-12-04T18:42:35.205Z,23.20
2022-12-04T18:45:03.031Z,24.50
2022-12-04T18:47:30.891Z,22.27
2022-12-04T18:50:00.513Z,21.57
2022-12-04T18:52:28.634Z,20.77
2022-12-04T18:54:56.733Z,21.47
2022-12-04T18:57:24.610Z,23.10
2022-12-04T18:59:52.640Z,24.03
2022-12-04T19:02:20.503Z,21.60
2022-12-04T19:04:48.318Z,21.70
2022-12-04T19:07:18.725Z,19.70
2022-12-04T19:12:34.488Z,18.43
2022-12-04T19:15:02.567Z,20.53
2022-12-04T19:17:30.394Z,17.30
2022-12-04T19:19:59.282Z,20.23
2022-12-04T19:22:30.407Z,19.93
2022-12-04T19:24:58.251Z,21.67
2022-12-04T19:27:27.555Z,19.87
2022-12-04T19:29:55.792Z,20.67
2022-12-04T19:32:24.445Z,19.30
2022-12-04T19:34:52.571Z,19.87
2022-12-04T19:37:20.668Z,20.53
2022-12-04T19:39:50.014Z,19.83
2022-12-04T19:42:17.964Z,21.33
2022-12-04T19:44:48.927Z,20.03
2022-12-04T19:47:19.082Z,20.33
2022-12-04T19:49:47.526Z,19.63
2022-12-04T19:52:15.805Z,19.63
2022-12-04T19:54:43.748Z,18.50
2022-12-04T19:57:15.792Z,18.30
2022-12-04T19:59:57.560Z,18.40
2022-12-04T20:02:25.636Z,17.80
2022-12-04T20:04:53.670Z,15.50
2022-12-04T20:07:21.629Z,16.40
2022-12-04T20:09:52.326Z,18.00
2022-12-04T20:12:22.122Z,17.87
2022-12-04T20:14:50.084Z,19.40
2022-12-04T20:17:17.900Z,18.03
2022-12-04T20:19:45.753Z,17.67
2022-12-04T20:22:13.547Z,16.87
2022-12-04T20:24:41.673Z,15.50
2022-12-04T20:27:09.815Z,14.27
2022-12-04T20:29:39.013Z,15.53
2022-12-04T20:32:07.159Z,14.90
2022-12-04T20:34:38.799Z,13.03
2022-12-04T20:37:11.290Z,14.93
2022-12-04T20:39:39.282Z,14.90
2022-12-04T20:42:07.112Z,19.70
2022-12-04T20:44:35.006Z,15.20
2022-12-04T20:47:04.299Z,16.07
2022-12-04T20:49:32.111Z,16.87
2022-12-04T20:51:59.913Z,15.73
2022-12-04T20:54:30.039Z,18.00
2022-12-04T20:56:57.873Z,16.03
2022-12-04T20:59:26.152Z,16.37
2022-12-04T21:01:54.708Z,18.53
2022-12-04T21:04:24.053Z,16.63
2022-12-04T21:06:52.064Z,15.83
2022-12-04T21:09:23.265Z,15.60
2022-12-04T21:11:53.482Z,14.47
2022-12-04T21:14:40.532Z,15.93
2022-12-04T21:17:11.766Z,17.20
2022-12-04T21:19:40.934Z,13.87
2022-12-04T21:22:08.821Z,15.03
2022-12-04T21:24:38.673Z,14.97
2022-12-04T21:27:08.995Z,15.40
2022-12-04T21:29:37.184Z,15.60
2022-12-04T21:32:05.922Z,16.13
2022-12-04T21:34:34.257Z,15.10
2022-12-04T21:37:03.480Z,15.10
2022-12-04T21:39:31.326Z,15.73
2022-12-04T21:42:16.429Z,15.43
2022-12-04T21:44:44.225Z,15.20
2022-12-04T21:47:12.040Z,14.37
2022-12-04T21:49:39.941Z,14.33
2022-12-04T21:52:09.099Z,14.37
2022-12-04T21:54:36.979Z,15.67
2022-12-04T21:57:04.827Z,16.07
2022-12-04T21:59:32.611Z,15.13
2022-12-04T22:02:00.784Z,17.00
2022-12-04T22:04:28.776Z,15.10
2022-12-04T22:06:56.567Z,15.57
2022-12-04T22:09:26.671Z,15.10
2022-12-04T22:11:54.547Z,15.30
2022-12-04T22:14:22.351Z,15.77
2022-12-04T22:16:52.103Z,14.27
2022-12-04T22:19:20.026Z,15.50
2022-12-04T22:21:47.901Z,16.17
2022-12-04T22:24:15.709Z,16.63
2022-12-04T22:26:44.820Z,16.57
2022-12-04T22:29:41.875Z,15.60
2022-12-04T22:32:00.339Z,18.50
2022-12-04T22:34:28.063Z,16.77
2022-12-04T22:36:55.889Z,17.20
2022-12-04T22:39:23.793Z,18.20
2022-12-04T22:41:52.959Z,15.83
2022-12-04T22:44:20.760Z,17.43
2022-12-04T22:46:48.600Z,16.63
2022-12-04T22:49:16.424Z,13.80
2022-12-04T22:51:44.155Z,17.07
2022-12-04T22:54:14.904Z,20.03
2022-12-04T22:56:43.532Z,17.37
2022-12-04T22:59:12.742Z,18.07
2022-12-04T23:01:40.779Z,15.63
2022-12-04T23:04:08.561Z,14.47
2022-12-04T23:06:36.719Z,17.70
2022-12-04T23:09:10.050Z,15.80
2022-12-04T23:11:38.052Z,17.70
2022-12-04T23:14:08.661Z,15.50
2022-12-04T23:16:39.592Z,16.53
2022-12-04T23:19:09.148Z,18.10
2022-12-04T23:21:36.964Z,22.13
2022-12-04T23:24:05.652Z,17.20
2022-12-04T23:26:36.119Z,18.07
2022-12-04T23:29:18.026Z,18.47
2022-12-04T23:31:54.543Z,17.83
2022-12-04T23:34:22.516Z,16.03
2022-12-04T23:36:50.353Z,14.40
2022-12-04T23:39:18.683Z,17.10
2022-12-04T23:41:46.423Z,16.20
2022-12-04T23:44:14.207Z,15.70
2022-12-04T23:46:42.016Z,14.87
2022-12-04T23:49:11.153Z,18.73
2022-12-04T23:51:39.547Z,15.10
2022-12-04T23:54:07.373Z,13.83
2022-12-04T23:56:35.213Z,19.97
2022-12-04T23:59:02.969Z,18.30
